Aliceville, Alabama
Current Conditions -  °F | °C
As of 8:53 PM on Monday 26 Jan 2015 (Local Time) from KTCL Reporting Station
Clear Clear  
Wind Chill:   Ceiling: Unl
Heat Index:   Visibility: 10mi
Dew Point:   Wind: 3mph
Humidity: 86%   Direction: 260°W
Pressure: 30.01"   Gusts: NA
Location:  33.13°N, 88.15°W
Report Text: KTCL 270253Z AUTO 26003KT 10SM CLR 02/00 A3001 RMK AO2 SLP161 T00220000 53001
Loading
Personal Weather Stations






























Interactive Weather Map New forecast layout! Learn more

10-Day Weather Forecast

Advertisements
Track Severe Weather on mobile